sensor_id;sensor_type;location;lat;lon;timestamp;P1;durP1;ratioP1;P2;durP2;ratioP2
3189;SDS011;1606;51.946;10.558;2022-12-18T00:01:23;7.80;;;4.00;;
3189;SDS011;1606;51.946;10.558;2022-12-18T00:03:53;7.38;;;3.30;;
3189;SDS011;1606;51.946;10.558;2022-12-18T00:06:25;9.90;;;4.10;;
3189;SDS011;1606;51.946;10.558;2022-12-18T00:08:55;9.53;;;3.60;;
3189;SDS011;1606;51.946;10.558;2022-12-18T00:11:24;7.83;;;3.50;;
3189;SDS011;1606;51.946;10.558;2022-12-18T00:13:56;11.27;;;3.60;;
3189;SDS011;1606;51.946;10.558;2022-12-18T00:16:27;11.40;;;3.23;;
3189;SDS011;1606;51.946;10.558;2022-12-18T00:18:56;8.97;;;3.33;;
3189;SDS011;1606;51.946;10.558;2022-12-18T00:21:25;8.33;;;2.90;;
3189;SDS011;1606;51.946;10.558;2022-12-18T00:23:59;9.32;;;3.70;;
3189;SDS011;1606;51.946;10.558;2022-12-18T00:26:37;7.47;;;3.70;;
3189;SDS011;1606;51.946;10.558;2022-12-18T00:29:06;7.73;;;3.70;;
3189;SDS011;1606;51.946;10.558;2022-12-18T00:31:39;8.67;;;4.03;;
3189;SDS011;1606;51.946;10.558;2022-12-18T00:34:13;8.30;;;3.80;;
3189;SDS011;1606;51.946;10.558;2022-12-18T00:36:41;7.60;;;3.97;;
3189;SDS011;1606;51.946;10.558;2022-12-18T00:39:10;8.50;;;3.73;;
3189;SDS011;1606;51.946;10.558;2022-12-18T00:41:38;7.63;;;3.23;;
3189;SDS011;1606;51.946;10.558;2022-12-18T00:44:23;6.18;;;3.28;;
3189;SDS011;1606;51.946;10.558;2022-12-18T00:46:53;8.05;;;3.42;;
3189;SDS011;1606;51.946;10.558;2022-12-18T00:49:20;9.33;;;3.87;;
3189;SDS011;1606;51.946;10.558;2022-12-18T00:51:48;6.50;;;3.37;;
3189;SDS011;1606;51.946;10.558;2022-12-18T00:54:16;8.53;;;3.50;;
3189;SDS011;1606;51.946;10.558;2022-12-18T00:56:44;8.07;;;4.10;;
3189;SDS011;1606;51.946;10.558;2022-12-18T00:59:15;7.40;;;3.70;;
3189;SDS011;1606;51.946;10.558;2022-12-18T01:01:43;11.33;;;3.93;;
3189;SDS011;1606;51.946;10.558;2022-12-18T01:04:13;9.93;;;4.38;;
3189;SDS011;1606;51.946;10.558;2022-12-18T01:06:41;8.23;;;3.77;;
3189;SDS011;1606;51.946;10.558;2022-12-18T01:09:09;7.65;;;3.63;;
3189;SDS011;1606;51.946;10.558;2022-12-18T01:11:37;7.07;;;3.25;;
3189;SDS011;1606;51.946;10.558;2022-12-18T01:14:05;8.05;;;3.75;;
3189;SDS011;1606;51.946;10.558;2022-12-18T01:16:33;8.93;;;4.83;;
3189;SDS011;1606;51.946;10.558;2022-12-18T01:19:01;6.97;;;4.07;;
3189;SDS011;1606;51.946;10.558;2022-12-18T01:21:30;7.90;;;3.83;;
3189;SDS011;1606;51.946;10.558;2022-12-18T01:23:58;7.63;;;3.85;;
3189;SDS011;1606;51.946;10.558;2022-12-18T01:26:26;10.98;;;3.97;;
3189;SDS011;1606;51.946;10.558;2022-12-18T01:28:56;12.13;;;4.18;;
3189;SDS011;1606;51.946;10.558;2022-12-18T01:31:25;11.83;;;3.70;;
3189;SDS011;1606;51.946;10.558;2022-12-18T01:34:09;7.23;;;3.90;;
3189;SDS011;1606;51.946;10.558;2022-12-18T01:36:38;8.17;;;3.73;;
3189;SDS011;1606;51.946;10.558;2022-12-18T01:39:07;7.07;;;3.78;;
3189;SDS011;1606;51.946;10.558;2022-12-18T01:41:38;9.53;;;4.10;;
3189;SDS011;1606;51.946;10.558;2022-12-18T01:47:30;8.10;;;3.60;;
3189;SDS011;1606;51.946;10.558;2022-12-18T01:50:02;7.95;;;4.20;;
3189;SDS011;1606;51.946;10.558;2022-12-18T01:52:36;7.80;;;3.50;;
3189;SDS011;1606;51.946;10.558;2022-12-18T01:55:05;6.97;;;3.65;;
3189;SDS011;1606;51.946;10.558;2022-12-18T01:57:35;10.47;;;4.07;;
3189;SDS011;1606;51.946;10.558;2022-12-18T02:00:05;7.50;;;3.73;;
3189;SDS011;1606;51.946;10.558;2022-12-18T02:02:35;8.82;;;3.80;;
3189;SDS011;1606;51.946;10.558;2022-12-18T02:05:03;9.47;;;3.87;;
3189;SDS011;1606;51.946;10.558;2022-12-18T02:07:37;11.97;;;3.90;;
3189;SDS011;1606;51.946;10.558;2022-12-18T02:10:14;6.75;;;3.50;;
3189;SDS011;1606;51.946;10.558;2022-12-18T02:12:48;7.00;;;3.40;;
3189;SDS011;1606;51.946;10.558;2022-12-18T02:15:21;7.20;;;3.75;;
3189;SDS011;1606;51.946;10.558;2022-12-18T02:17:54;7.80;;;3.58;;
3189;SDS011;1606;51.946;10.558;2022-12-18T02:20:28;9.40;;;4.05;;
3189;SDS011;1606;51.946;10.558;2022-12-18T02:23:11;8.82;;;4.20;;
3189;SDS011;1606;51.946;10.558;2022-12-18T02:26:00;8.23;;;4.38;;
3189;SDS011;1606;51.946;10.558;2022-12-18T02:28:34;7.78;;;4.18;;
3189;SDS011;1606;51.946;10.558;2022-12-18T02:31:07;7.72;;;3.45;;
3189;SDS011;1606;51.946;10.558;2022-12-18T02:33:38;10.35;;;4.07;;
3189;SDS011;1606;51.946;10.558;2022-12-18T02:36:10;11.35;;;4.28;;
3189;SDS011;1606;51.946;10.558;2022-12-18T02:38:39;6.90;;;3.60;;
3189;SDS011;1606;51.946;10.558;2022-12-18T02:41:09;11.30;;;4.07;;
3189;SDS011;1606;51.946;10.558;2022-12-18T02:43:38;7.50;;;4.25;;
3189;SDS011;1606;51.946;10.558;2022-12-18T02:46:23;7.60;;;3.55;;
3189;SDS011;1606;51.946;10.558;2022-12-18T02:48:57;7.13;;;3.50;;
3189;SDS011;1606;51.946;10.558;2022-12-18T02:51:35;7.53;;;4.00;;
3189;SDS011;1606;51.946;10.558;2022-12-18T02:54:10;9.82;;;5.05;;
3189;SDS011;1606;51.946;10.558;2022-12-18T02:56:48;10.25;;;4.90;;
3189;SDS011;1606;51.946;10.558;2022-12-18T02:59:19;13.75;;;5.03;;
3189;SDS011;1606;51.946;10.558;2022-12-18T03:01:53;8.98;;;5.45;;
3189;SDS011;1606;51.946;10.558;2022-12-18T03:04:26;9.23;;;4.57;;
3189;SDS011;1606;51.946;10.558;2022-12-18T03:07:00;14.25;;;4.13;;
3189;SDS011;1606;51.946;10.558;2022-12-18T03:09:32;8.38;;;4.47;;
3189;SDS011;1606;51.946;10.558;2022-12-18T03:12:06;9.65;;;3.70;;
3189;SDS011;1606;51.946;10.558;2022-12-18T03:14:52;7.88;;;3.97;;
3189;SDS011;1606;51.946;10.558;2022-12-18T03:17:23;11.32;;;4.70;;
3189;SDS011;1606;51.946;10.558;2022-12-18T03:19:56;8.68;;;4.65;;
3189;SDS011;1606;51.946;10.558;2022-12-18T03:22:27;7.35;;;4.70;;
3189;SDS011;1606;51.946;10.558;2022-12-18T03:24:57;10.60;;;4.80;;
3189;SDS011;1606;51.946;10.558;2022-12-18T03:27:29;10.10;;;4.63;;
3189;SDS011;1606;51.946;10.558;2022-12-18T03:30:01;7.68;;;4.18;;
3189;SDS011;1606;51.946;10.558;2022-12-18T03:32:35;10.70;;;5.05;;
3189;SDS011;1606;51.946;10.558;2022-12-18T03:35:07;9.45;;;4.57;;
3189;SDS011;1606;51.946;10.558;2022-12-18T03:37:37;8.68;;;4.47;;
3189;SDS011;1606;51.946;10.558;2022-12-18T03:40:06;9.13;;;4.07;;
3189;SDS011;1606;51.946;10.558;2022-12-18T03:42:39;12.32;;;5.07;;
3189;SDS011;1606;51.946;10.558;2022-12-18T03:45:17;8.13;;;4.15;;
3189;SDS011;1606;51.946;10.558;2022-12-18T03:47:52;8.52;;;3.85;;
3189;SDS011;1606;51.946;10.558;2022-12-18T03:50:34;8.13;;;4.18;;
3189;SDS011;1606;51.946;10.558;2022-12-18T03:53:22;9.27;;;5.20;;
3189;SDS011;1606;51.946;10.558;2022-12-18T03:55:56;11.52;;;4.18;;
3189;SDS011;1606;51.946;10.558;2022-12-18T03:58:27;9.05;;;4.65;;
3189;SDS011;1606;51.946;10.558;2022-12-18T04:00:58;8.73;;;4.95;;
3189;SDS011;1606;51.946;10.558;2022-12-18T04:03:29;7.95;;;4.10;;
3189;SDS011;1606;51.946;10.558;2022-12-18T04:06:02;11.27;;;4.72;;
3189;SDS011;1606;51.946;10.558;2022-12-18T04:08:31;11.77;;;5.10;;
3189;SDS011;1606;51.946;10.558;2022-12-18T04:11:00;10.40;;;5.03;;
3189;SDS011;1606;51.946;10.558;2022-12-18T04:13:33;10.68;;;4.90;;
3189;SDS011;1606;51.946;10.558;2022-12-18T04:16:03;9.10;;;5.10;;
3189;SDS011;1606;51.946;10.558;2022-12-18T04:18:31;10.05;;;4.35;;
3189;SDS011;1606;51.946;10.558;2022-12-18T04:20:59;10.15;;;4.35;;
3189;SDS011;1606;51.946;10.558;2022-12-18T04:23:27;9.48;;;4.20;;
3189;SDS011;1606;51.946;10.558;2022-12-18T04:25:55;9.15;;;4.75;;
3189;SDS011;1606;51.946;10.558;2022-12-18T04:28:23;12.70;;;4.90;;
3189;SDS011;1606;51.946;10.558;2022-12-18T04:30:52;9.63;;;4.28;;
3189;SDS011;1606;51.946;10.558;2022-12-18T04:33:20;7.55;;;4.20;;
3189;SDS011;1606;51.946;10.558;2022-12-18T04:35:48;7.75;;;4.32;;
3189;SDS011;1606;51.946;10.558;2022-12-18T04:38:16;8.40;;;3.80;;
3189;SDS011;1606;51.946;10.558;2022-12-18T04:40:44;8.85;;;3.95;;
3189;SDS011;1606;51.946;10.558;2022-12-18T04:43:12;7.53;;;3.80;;
3189;SDS011;1606;51.946;10.558;2022-12-18T04:45:40;6.50;;;3.25;;
3189;SDS011;1606;51.946;10.558;2022-12-18T04:48:09;8.95;;;4.25;;
3189;SDS011;1606;51.946;10.558;2022-12-18T04:50:37;9.10;;;3.78;;
3189;SDS011;1606;51.946;10.558;2022-12-18T04:53:06;7.10;;;4.07;;
3189;SDS011;1606;51.946;10.558;2022-12-18T04:55:35;11.07;;;3.85;;
3189;SDS011;1606;51.946;10.558;2022-12-18T04:58:03;7.53;;;3.60;;
3189;SDS011;1606;51.946;10.558;2022-12-18T05:00:31;14.73;;;3.97;;
3189;SDS011;1606;51.946;10.558;2022-12-18T05:03:00;10.35;;;3.88;;
3189;SDS011;1606;51.946;10.558;2022-12-18T05:05:30;10.45;;;4.25;;
3189;SDS011;1606;51.946;10.558;2022-12-18T05:07:59;7.13;;;3.95;;
3189;SDS011;1606;51.946;10.558;2022-12-18T05:10:27;7.85;;;3.90;;
3189;SDS011;1606;51.946;10.558;2022-12-18T05:13:03;8.52;;;3.90;;
3189;SDS011;1606;51.946;10.558;2022-12-18T05:15:31;9.63;;;3.75;;
3189;SDS011;1606;51.946;10.558;2022-12-18T05:18:00;6.95;;;3.60;;
3189;SDS011;1606;51.946;10.558;2022-12-18T05:20:30;9.98;;;3.90;;
3189;SDS011;1606;51.946;10.558;2022-12-18T05:22:58;8.52;;;3.83;;
3189;SDS011;1606;51.946;10.558;2022-12-18T05:25:26;7.35;;;3.80;;
3189;SDS011;1606;51.946;10.558;2022-12-18T05:27:54;9.20;;;3.95;;
3189;SDS011;1606;51.946;10.558;2022-12-18T05:30:23;6.95;;;4.10;;
3189;SDS011;1606;51.946;10.558;2022-12-18T05:32:51;7.80;;;3.75;;
3189;SDS011;1606;51.946;10.558;2022-12-18T05:35:19;7.53;;;3.90;;
3189;SDS011;1606;51.946;10.558;2022-12-18T05:37:48;7.38;;;4.03;;
3189;SDS011;1606;51.946;10.558;2022-12-18T05:40:16;10.68;;;4.07;;
3189;SDS011;1606;51.946;10.558;2022-12-18T05:42:44;7.38;;;3.80;;
3189;SDS011;1606;51.946;10.558;2022-12-18T05:45:12;7.68;;;3.97;;
3189;SDS011;1606;51.946;10.558;2022-12-18T05:47:40;8.80;;;4.05;;
3189;SDS011;1606;51.946;10.558;2022-12-18T05:50:09;8.30;;;5.00;;
3189;SDS011;1606;51.946;10.558;2022-12-18T05:52:36;7.80;;;3.70;;
3189;SDS011;1606;51.946;10.558;2022-12-18T05:55:06;9.25;;;4.60;;
3189;SDS011;1606;51.946;10.558;2022-12-18T05:57:34;10.13;;;4.88;;
3189;SDS011;1606;51.946;10.558;2022-12-18T06:00:02;7.35;;;4.53;;
3189;SDS011;1606;51.946;10.558;2022-12-18T06:02:31;9.05;;;4.45;;
3189;SDS011;1606;51.946;10.558;2022-12-18T06:04:59;7.97;;;4.50;;
3189;SDS011;1606;51.946;10.558;2022-12-18T06:07:26;10.95;;;4.53;;
3189;SDS011;1606;51.946;10.558;2022-12-18T06:09:54;10.10;;;4.75;;
3189;SDS011;1606;51.946;10.558;2022-12-18T06:12:24;7.97;;;4.32;;
3189;SDS011;1606;51.946;10.558;2022-12-18T06:14:52;10.60;;;4.55;;
3189;SDS011;1606;51.946;10.558;2022-12-18T06:17:20;7.32;;;4.63;;
3189;SDS011;1606;51.946;10.558;2022-12-18T06:19:48;8.73;;;5.10;;
3189;SDS011;1606;51.946;10.558;2022-12-18T06:22:16;9.93;;;4.65;;
3189;SDS011;1606;51.946;10.558;2022-12-18T06:24:44;9.43;;;4.13;;
3189;SDS011;1606;51.946;10.558;2022-12-18T06:27:12;8.35;;;4.70;;
3189;SDS011;1606;51.946;10.558;2022-12-18T06:29:41;9.00;;;5.00;;
3189;SDS011;1606;51.946;10.558;2022-12-18T06:32:09;7.20;;;4.03;;
3189;SDS011;1606;51.946;10.558;2022-12-18T06:34:37;10.57;;;5.63;;
3189;SDS011;1606;51.946;10.558;2022-12-18T06:37:06;9.63;;;4.90;;
3189;SDS011;1606;51.946;10.558;2022-12-18T06:39:33;10.15;;;4.85;;
3189;SDS011;1606;51.946;10.558;2022-12-18T06:42:01;8.65;;;5.50;;
3189;SDS011;1606;51.946;10.558;2022-12-18T06:44:30;10.93;;;4.45;;
3189;SDS011;1606;51.946;10.558;2022-12-18T06:46:59;8.23;;;5.03;;
3189;SDS011;1606;51.946;10.558;2022-12-18T06:49:27;11.07;;;4.82;;
3189;SDS011;1606;51.946;10.558;2022-12-18T06:51:56;12.73;;;4.65;;
3189;SDS011;1606;51.946;10.558;2022-12-18T06:54:23;8.30;;;4.80;;
3189;SDS011;1606;51.946;10.558;2022-12-18T06:56:51;8.98;;;5.00;;
3189;SDS011;1606;51.946;10.558;2022-12-18T06:59:19;8.20;;;4.82;;
3189;SDS011;1606;51.946;10.558;2022-12-18T07:01:47;8.65;;;5.07;;
3189;SDS011;1606;51.946;10.558;2022-12-18T07:04:17;9.25;;;5.03;;
3189;SDS011;1606;51.946;10.558;2022-12-18T07:06:44;9.50;;;5.10;;
3189;SDS011;1606;51.946;10.558;2022-12-18T07:09:12;13.20;;;4.78;;
3189;SDS011;1606;51.946;10.558;2022-12-18T07:11:40;9.20;;;4.45;;
3189;SDS011;1606;51.946;10.558;2022-12-18T07:14:08;8.98;;;5.32;;
3189;SDS011;1606;51.946;10.558;2022-12-18T07:16:36;8.30;;;4.63;;
3189;SDS011;1606;51.946;10.558;2022-12-18T07:19:04;11.50;;;5.63;;
3189;SDS011;1606;51.946;10.558;2022-12-18T07:21:33;9.05;;;5.10;;
3189;SDS011;1606;51.946;10.558;2022-12-18T07:24:01;8.05;;;4.63;;
3189;SDS011;1606;51.946;10.558;2022-12-18T07:26:29;14.77;;;5.32;;
3189;SDS011;1606;51.946;10.558;2022-12-18T07:28:57;11.82;;;6.90;;
3189;SDS011;1606;51.946;10.558;2022-12-18T07:31:25;11.93;;;5.68;;
3189;SDS011;1606;51.946;10.558;2022-12-18T07:33:54;11.57;;;5.15;;
3189;SDS011;1606;51.946;10.558;2022-12-18T07:36:22;12.45;;;6.70;;
3189;SDS011;1606;51.946;10.558;2022-12-18T07:38:51;10.73;;;4.85;;
3189;SDS011;1606;51.946;10.558;2022-12-18T07:41:19;10.00;;;4.80;;
3189;SDS011;1606;51.946;10.558;2022-12-18T07:43:47;9.25;;;4.78;;
3189;SDS011;1606;51.946;10.558;2022-12-18T07:46:16;8.38;;;4.80;;
3189;SDS011;1606;51.946;10.558;2022-12-18T07:48:44;16.45;;;6.45;;
3189;SDS011;1606;51.946;10.558;2022-12-18T07:51:15;12.25;;;6.13;;
3189;SDS011;1606;51.946;10.558;2022-12-18T07:53:43;10.32;;;5.65;;
3189;SDS011;1606;51.946;10.558;2022-12-18T07:56:18;11.80;;;8.13;;
3189;SDS011;1606;51.946;10.558;2022-12-18T07:58:56;14.20;;;6.65;;
3189;SDS011;1606;51.946;10.558;2022-12-18T08:01:25;13.57;;;6.80;;
3189;SDS011;1606;51.946;10.558;2022-12-18T08:03:53;13.63;;;8.77;;
3189;SDS011;1606;51.946;10.558;2022-12-18T08:06:21;12.30;;;5.72;;
3189;SDS011;1606;51.946;10.558;2022-12-18T08:08:50;13.10;;;7.47;;
3189;SDS011;1606;51.946;10.558;2022-12-18T08:11:21;12.55;;;6.47;;
3189;SDS011;1606;51.946;10.558;2022-12-18T08:13:49;12.27;;;6.85;;
3189;SDS011;1606;51.946;10.558;2022-12-18T08:16:17;16.45;;;7.03;;
3189;SDS011;1606;51.946;10.558;2022-12-18T08:18:46;11.43;;;7.00;;
3189;SDS011;1606;51.946;10.558;2022-12-18T08:21:16;21.48;;;8.30;;
3189;SDS011;1606;51.946;10.558;2022-12-18T08:23:46;13.18;;;7.78;;
3189;SDS011;1606;51.946;10.558;2022-12-18T08:26:16;18.70;;;8.90;;
3189;SDS011;1606;51.946;10.558;2022-12-18T08:28:47;15.02;;;9.48;;
3189;SDS011;1606;51.946;10.558;2022-12-18T08:31:16;10.10;;;7.30;;
3189;SDS011;1606;51.946;10.558;2022-12-18T08:33:44;13.25;;;7.07;;
3189;SDS011;1606;51.946;10.558;2022-12-18T08:36:12;12.82;;;8.45;;
3189;SDS011;1606;51.946;10.558;2022-12-18T08:38:40;12.25;;;7.55;;
3189;SDS011;1606;51.946;10.558;2022-12-18T08:41:10;14.63;;;8.13;;
3189;SDS011;1606;51.946;10.558;2022-12-18T08:43:39;19.70;;;8.80;;
3189;SDS011;1606;51.946;10.558;2022-12-18T08:46:27;13.52;;;8.35;;
3189;SDS011;1606;51.946;10.558;2022-12-18T08:49:00;15.63;;;9.27;;
3189;SDS011;1606;51.946;10.558;2022-12-18T08:51:29;14.27;;;8.57;;
3189;SDS011;1606;51.946;10.558;2022-12-18T08:53:57;13.60;;;8.13;;
3189;SDS011;1606;51.946;10.558;2022-12-18T08:56:24;12.70;;;8.20;;
3189;SDS011;1606;51.946;10.558;2022-12-18T08:58:52;18.05;;;9.18;;
3189;SDS011;1606;51.946;10.558;2022-12-18T09:01:21;18.80;;;10.35;;
3189;SDS011;1606;51.946;10.558;2022-12-18T09:03:51;19.00;;;10.73;;
3189;SDS011;1606;51.946;10.558;2022-12-18T09:06:19;17.45;;;10.82;;
3189;SDS011;1606;51.946;10.558;2022-12-18T09:08:49;17.02;;;9.45;;
3189;SDS011;1606;51.946;10.558;2022-12-18T09:11:19;20.15;;;10.93;;
3189;SDS011;1606;51.946;10.558;2022-12-18T09:13:48;19.30;;;10.57;;
3189;SDS011;1606;51.946;10.558;2022-12-18T09:16:17;19.48;;;10.25;;
3189;SDS011;1606;51.946;10.558;2022-12-18T09:18:45;27.02;;;14.85;;
3189;SDS011;1606;51.946;10.558;2022-12-18T09:21:15;25.80;;;15.07;;
3189;SDS011;1606;51.946;10.558;2022-12-18T09:23:48;32.42;;;16.85;;
3189;SDS011;1606;51.946;10.558;2022-12-18T09:26:17;29.33;;;15.35;;
3189;SDS011;1606;51.946;10.558;2022-12-18T09:28:45;25.57;;;16.03;;
3189;SDS011;1606;51.946;10.558;2022-12-18T09:31:13;28.77;;;16.27;;
3189;SDS011;1606;51.946;10.558;2022-12-18T09:33:42;28.00;;;14.97;;
3189;SDS011;1606;51.946;10.558;2022-12-18T09:36:11;27.05;;;16.90;;
3189;SDS011;1606;51.946;10.558;2022-12-18T09:38:43;30.33;;;15.27;;
3189;SDS011;1606;51.946;10.558;2022-12-18T09:41:16;27.90;;;15.20;;
3189;SDS011;1606;51.946;10.558;2022-12-18T09:44:05;31.65;;;16.55;;
3189;SDS011;1606;51.946;10.558;2022-12-18T09:46:46;28.10;;;15.90;;
3189;SDS011;1606;51.946;10.558;2022-12-18T09:49:18;28.58;;;15.63;;
3189;SDS011;1606;51.946;10.558;2022-12-18T09:51:50;21.47;;;12.93;;
3189;SDS011;1606;51.946;10.558;2022-12-18T09:54:24;25.05;;;14.07;;
3189;SDS011;1606;51.946;10.558;2022-12-18T09:56:55;23.77;;;11.73;;
3189;SDS011;1606;51.946;10.558;2022-12-18T09:59:24;22.63;;;12.23;;
3189;SDS011;1606;51.946;10.558;2022-12-18T10:01:55;23.20;;;12.53;;
3189;SDS011;1606;51.946;10.558;2022-12-18T10:04:24;24.23;;;14.48;;
3189;SDS011;1606;51.946;10.558;2022-12-18T10:06:58;34.75;;;15.15;;
3189;SDS011;1606;51.946;10.558;2022-12-18T10:09:36;27.63;;;13.50;;
3189;SDS011;1606;51.946;10.558;2022-12-18T10:12:07;27.43;;;14.47;;
3189;SDS011;1606;51.946;10.558;2022-12-18T10:14:46;22.43;;;14.17;;
3189;SDS011;1606;51.946;10.558;2022-12-18T10:17:22;28.30;;;15.33;;
3189;SDS011;1606;51.946;10.558;2022-12-18T10:19:56;26.53;;;13.60;;
3189;SDS011;1606;51.946;10.558;2022-12-18T10:22:35;21.97;;;12.70;;
3189;SDS011;1606;51.946;10.558;2022-12-18T10:25:15;25.03;;;14.43;;
3189;SDS011;1606;51.946;10.558;2022-12-18T10:27:49;25.53;;;14.10;;
3189;SDS011;1606;51.946;10.558;2022-12-18T10:30:20;29.43;;;14.40;;
3189;SDS011;1606;51.946;10.558;2022-12-18T10:32:50;27.93;;;14.43;;
3189;SDS011;1606;51.946;10.558;2022-12-18T10:35:19;25.77;;;14.60;;
3189;SDS011;1606;51.946;10.558;2022-12-18T10:38:01;23.83;;;13.87;;
3189;SDS011;1606;51.946;10.558;2022-12-18T10:40:33;28.50;;;14.13;;
3189;SDS011;1606;51.946;10.558;2022-12-18T10:43:19;29.73;;;14.03;;
3189;SDS011;1606;51.946;10.558;2022-12-18T10:45:59;24.77;;;12.67;;
3189;SDS011;1606;51.946;10.558;2022-12-18T10:48:48;29.90;;;13.50;;
3189;SDS011;1606;51.946;10.558;2022-12-18T10:51:20;24.47;;;13.73;;
3189;SDS011;1606;51.946;10.558;2022-12-18T10:53:57;27.33;;;15.67;;
3189;SDS011;1606;51.946;10.558;2022-12-18T10:56:29;24.30;;;12.77;;
3189;SDS011;1606;51.946;10.558;2022-12-18T10:59:00;25.57;;;13.13;;
3189;SDS011;1606;51.946;10.558;2022-12-18T11:01:33;22.00;;;13.10;;
3189;SDS011;1606;51.946;10.558;2022-12-18T11:04:15;22.63;;;12.30;;
3189;SDS011;1606;51.946;10.558;2022-12-18T11:06:56;24.47;;;13.63;;
3189;SDS011;1606;51.946;10.558;2022-12-18T11:09:25;26.53;;;14.90;;
3189;SDS011;1606;51.946;10.558;2022-12-18T11:11:56;23.13;;;13.37;;
3189;SDS011;1606;51.946;10.558;2022-12-18T11:14:26;26.50;;;14.40;;
3189;SDS011;1606;51.946;10.558;2022-12-18T11:16:56;28.23;;;14.43;;
3189;SDS011;1606;51.946;10.558;2022-12-18T11:19:46;28.43;;;13.87;;
3189;SDS011;1606;51.946;10.558;2022-12-18T11:22:20;31.63;;;14.63;;
3189;SDS011;1606;51.946;10.558;2022-12-18T11:24:53;29.13;;;14.00;;
3189;SDS011;1606;51.946;10.558;2022-12-18T11:27:48;25.80;;;13.73;;
3189;SDS011;1606;51.946;10.558;2022-12-18T11:30:22;26.20;;;15.07;;
3189;SDS011;1606;51.946;10.558;2022-12-18T11:32:53;27.13;;;15.20;;
3189;SDS011;1606;51.946;10.558;2022-12-18T11:35:32;26.93;;;14.80;;
3189;SDS011;1606;51.946;10.558;2022-12-18T11:38:06;28.33;;;15.40;;
3189;SDS011;1606;51.946;10.558;2022-12-18T11:40:42;23.63;;;14.30;;
3189;SDS011;1606;51.946;10.558;2022-12-18T11:43:14;24.03;;;15.00;;
3189;SDS011;1606;51.946;10.558;2022-12-18T11:45:47;26.37;;;14.60;;
3189;SDS011;1606;51.946;10.558;2022-12-18T11:48:20;29.93;;;17.17;;
3189;SDS011;1606;51.946;10.558;2022-12-18T11:50:52;31.10;;;15.80;;
3189;SDS011;1606;51.946;10.558;2022-12-18T11:53:22;24.57;;;15.33;;
3189;SDS011;1606;51.946;10.558;2022-12-18T11:55:57;28.80;;;16.40;;
3189;SDS011;1606;51.946;10.558;2022-12-18T11:58:41;25.90;;;16.70;;
3189;SDS011;1606;51.946;10.558;2022-12-18T12:01:16;24.47;;;15.60;;
3189;SDS011;1606;51.946;10.558;2022-12-18T12:06:58;32.97;;;15.97;;
3189;SDS011;1606;51.946;10.558;2022-12-18T12:09:39;24.60;;;15.00;;
3189;SDS011;1606;51.946;10.558;2022-12-18T12:12:20;27.03;;;13.60;;
3189;SDS011;1606;51.946;10.558;2022-12-18T12:15:19;30.60;;;14.40;;
3189;SDS011;1606;51.946;10.558;2022-12-18T12:17:54;28.13;;;14.70;;
3189;SDS011;1606;51.946;10.558;2022-12-18T12:20:29;23.57;;;14.13;;
3189;SDS011;1606;51.946;10.558;2022-12-18T12:23:12;24.40;;;14.07;;
3189;SDS011;1606;51.946;10.558;2022-12-18T12:25:55;24.43;;;13.00;;
3189;SDS011;1606;51.946;10.558;2022-12-18T12:31:41;21.07;;;12.90;;
3189;SDS011;1606;51.946;10.558;2022-12-18T12:34:22;22.50;;;12.70;;
3189;SDS011;1606;51.946;10.558;2022-12-18T12:36:59;23.20;;;13.70;;
3189;SDS011;1606;51.946;10.558;2022-12-18T12:39:35;23.00;;;12.60;;
3189;SDS011;1606;51.946;10.558;2022-12-18T12:42:11;26.43;;;13.10;;
3189;SDS011;1606;51.946;10.558;2022-12-18T12:45:03;24.37;;;12.60;;
3189;SDS011;1606;51.946;10.558;2022-12-18T12:47:38;23.90;;;11.87;;
3189;SDS011;1606;51.946;10.558;2022-12-18T12:50:12;20.80;;;12.50;;
3189;SDS011;1606;51.946;10.558;2022-12-18T12:52:43;24.33;;;13.10;;
3189;SDS011;1606;51.946;10.558;2022-12-18T12:55:30;22.90;;;13.07;;
3189;SDS011;1606;51.946;10.558;2022-12-18T12:58:02;21.90;;;13.57;;
3189;SDS011;1606;51.946;10.558;2022-12-18T13:00:36;25.60;;;14.13;;
3189;SDS011;1606;51.946;10.558;2022-12-18T13:03:12;25.33;;;14.40;;
3189;SDS011;1606;51.946;10.558;2022-12-18T13:05:54;24.60;;;13.70;;
3189;SDS011;1606;51.946;10.558;2022-12-18T13:08:28;21.97;;;14.47;;
3189;SDS011;1606;51.946;10.558;2022-12-18T13:11:02;24.23;;;14.17;;
3189;SDS011;1606;51.946;10.558;2022-12-18T13:13:48;24.67;;;15.23;;
3189;SDS011;1606;51.946;10.558;2022-12-18T13:16:18;26.17;;;15.60;;
3189;SDS011;1606;51.946;10.558;2022-12-18T13:18:55;27.23;;;15.23;;
3189;SDS011;1606;51.946;10.558;2022-12-18T13:21:27;25.97;;;14.77;;
3189;SDS011;1606;51.946;10.558;2022-12-18T13:23:56;29.83;;;18.20;;
3189;SDS011;1606;51.946;10.558;2022-12-18T13:26:41;28.90;;;16.93;;
3189;SDS011;1606;51.946;10.558;2022-12-18T13:29:10;31.73;;;17.97;;
3189;SDS011;1606;51.946;10.558;2022-12-18T13:34:51;27.97;;;15.00;;
3189;SDS011;1606;51.946;10.558;2022-12-18T13:37:58;29.47;;;15.50;;
3189;SDS011;1606;51.946;10.558;2022-12-18T13:43:33;29.27;;;15.67;;
3189;SDS011;1606;51.946;10.558;2022-12-18T13:46:18;29.83;;;16.90;;
3189;SDS011;1606;51.946;10.558;2022-12-18T13:48:49;27.37;;;14.30;;
3189;SDS011;1606;51.946;10.558;2022-12-18T13:51:29;28.50;;;16.00;;
3189;SDS011;1606;51.946;10.558;2022-12-18T13:54:00;28.57;;;15.27;;
3189;SDS011;1606;51.946;10.558;2022-12-18T13:56:32;26.83;;;15.83;;
3189;SDS011;1606;51.946;10.558;2022-12-18T13:59:05;32.43;;;16.10;;
3189;SDS011;1606;51.946;10.558;2022-12-18T14:01:48;27.83;;;15.30;;
3189;SDS011;1606;51.946;10.558;2022-12-18T14:04:23;39.00;;;20.40;;
3189;SDS011;1606;51.946;10.558;2022-12-18T14:06:55;32.43;;;18.40;;
3189;SDS011;1606;51.946;10.558;2022-12-18T14:09:26;31.23;;;18.17;;
3189;SDS011;1606;51.946;10.558;2022-12-18T14:11:58;37.00;;;19.20;;
3189;SDS011;1606;51.946;10.558;2022-12-18T14:14:46;30.20;;;17.23;;
3189;SDS011;1606;51.946;10.558;2022-12-18T14:17:18;36.33;;;19.57;;
3189;SDS011;1606;51.946;10.558;2022-12-18T14:19:47;30.63;;;17.40;;
3189;SDS011;1606;51.946;10.558;2022-12-18T14:22:19;32.53;;;18.00;;
3189;SDS011;1606;51.946;10.558;2022-12-18T14:25:04;29.67;;;15.67;;
3189;SDS011;1606;51.946;10.558;2022-12-18T14:27:42;30.70;;;16.77;;
3189;SDS011;1606;51.946;10.558;2022-12-18T14:30:23;27.63;;;15.77;;
3189;SDS011;1606;51.946;10.558;2022-12-18T14:33:01;27.70;;;15.40;;
3189;SDS011;1606;51.946;10.558;2022-12-18T14:35:30;33.90;;;18.70;;
3189;SDS011;1606;51.946;10.558;2022-12-18T14:38:11;23.30;;;14.53;;
3189;SDS011;1606;51.946;10.558;2022-12-18T14:40:51;25.13;;;13.27;;
3189;SDS011;1606;51.946;10.558;2022-12-18T14:43:20;28.60;;;15.00;;
3189;SDS011;1606;51.946;10.558;2022-12-18T14:45:49;21.10;;;14.73;;
3189;SDS011;1606;51.946;10.558;2022-12-18T14:48:19;23.27;;;13.67;;
3189;SDS011;1606;51.946;10.558;2022-12-18T14:50:56;20.73;;;12.77;;
3189;SDS011;1606;51.946;10.558;2022-12-18T14:53:33;22.53;;;12.87;;
3189;SDS011;1606;51.946;10.558;2022-12-18T14:56:03;21.73;;;10.87;;
3189;SDS011;1606;51.946;10.558;2022-12-18T14:58:44;20.67;;;12.20;;
3189;SDS011;1606;51.946;10.558;2022-12-18T15:01:20;22.60;;;13.17;;
3189;SDS011;1606;51.946;10.558;2022-12-18T15:03:50;19.60;;;10.90;;
3189;SDS011;1606;51.946;10.558;2022-12-18T15:06:24;19.30;;;11.70;;
3189;SDS011;1606;51.946;10.558;2022-12-18T15:08:59;21.10;;;11.47;;
3189;SDS011;1606;51.946;10.558;2022-12-18T15:11:33;22.00;;;12.03;;
3189;SDS011;1606;51.946;10.558;2022-12-18T15:14:32;25.67;;;11.43;;
3189;SDS011;1606;51.946;10.558;2022-12-18T15:17:03;21.63;;;12.27;;
3189;SDS011;1606;51.946;10.558;2022-12-18T15:19:34;20.73;;;12.17;;
3189;SDS011;1606;51.946;10.558;2022-12-18T15:22:13;21.50;;;12.10;;
3189;SDS011;1606;51.946;10.558;2022-12-18T15:24:48;32.90;;;14.00;;
3189;SDS011;1606;51.946;10.558;2022-12-18T15:27:30;27.27;;;13.97;;
3189;SDS011;1606;51.946;10.558;2022-12-18T15:30:20;19.83;;;13.03;;
3189;SDS011;1606;51.946;10.558;2022-12-18T15:32:49;23.53;;;13.13;;
3189;SDS011;1606;51.946;10.558;2022-12-18T15:35:20;27.67;;;15.20;;